West Point, New York
Current Conditions -  °F | °C
As of 9:45 PM on Sunday 23 Nov 2014 (Local Time) from KSWF Reporting Station
Broken Clouds Broken Clouds  
Wind Chill: 44°   Ceiling: 10000
Heat Index: 46°   Visibility: 10mi
Dew Point: 30°   Wind: 6mph
Humidity: 53%   Direction: NA
Pressure: 30.06"   Gusts: NA
Location:  41.4°N, 73.95°W
Report Text: KSWF 240245Z VRB05KT 10SM SCT040 BKN100 08/M01 A3006
Loading
Personal Weather Stations






























Interactive Weather Map New forecast layout! Learn more

10-Day Weather Forecast

Advertisements
Track Severe Weather on mobile